createdAt,value
2018-11-10T00:02:04.309Z,10.10
2018-11-10T00:04:32.758Z,10.00
2018-11-10T00:07:01.342Z,10.00
2018-11-10T00:09:29.889Z,9.90
2018-11-10T00:11:59.041Z,9.90
2018-11-10T00:14:27.685Z,9.90
2018-11-10T00:16:55.964Z,9.80
2018-11-10T00:19:24.278Z,9.80
2018-11-10T00:21:52.714Z,9.80
2018-11-10T00:24:21.050Z,9.80
2018-11-10T00:26:49.337Z,9.80
2018-11-10T00:29:17.644Z,9.80
2018-11-10T00:31:45.966Z,9.80
2018-11-10T00:34:14.555Z,9.80
2018-11-10T00:36:43.344Z,9.80
2018-11-10T00:39:11.830Z,9.90
2018-11-10T00:41:41.233Z,9.90
2018-11-10T00:44:09.457Z,9.90
2018-11-10T00:46:37.761Z,9.90
2018-11-10T00:49:06.477Z,9.90
2018-11-10T00:51:34.848Z,9.90
2018-11-10T00:54:03.163Z,9.90
2018-11-10T00:56:31.581Z,9.90
2018-11-10T00:59:00.201Z,9.90
2018-11-10T01:01:28.637Z,9.90
2018-11-10T01:03:56.944Z,9.90
2018-11-10T01:06:26.184Z,9.90
2018-11-10T01:08:54.745Z,9.90
2018-11-10T01:11:23.248Z,10.00
2018-11-10T01:13:51.979Z,10.00
2018-11-10T01:16:20.849Z,9.90
2018-11-10T01:18:50.401Z,9.90
2018-11-10T01:21:18.867Z,9.80
2018-11-10T01:23:47.130Z,9.90
2018-11-10T01:26:15.373Z,9.90
2018-11-10T01:28:43.707Z,9.90
2018-11-10T01:31:12.090Z,9.90
2018-11-10T01:33:40.349Z,9.90
2018-11-10T01:36:08.664Z,9.90
2018-11-10T01:38:36.970Z,9.90
2018-11-10T01:41:05.763Z,9.90
2018-11-10T01:43:34.004Z,9.90
2018-11-10T01:46:02.970Z,9.80
2018-11-10T01:48:31.262Z,9.80
2018-11-10T01:50:59.499Z,9.80
2018-11-10T01:53:27.878Z,9.80
2018-11-10T01:55:56.152Z,9.80
2018-11-10T01:58:24.453Z,9.70
2018-11-10T02:00:52.792Z,9.70
2018-11-10T02:03:21.173Z,9.70
2018-11-10T02:05:49.541Z,9.70
2018-11-10T02:08:17.835Z,9.60
2018-11-10T02:10:46.260Z,9.70
2018-11-10T02:13:14.620Z,9.70
2018-11-10T02:15:42.982Z,9.70
2018-11-10T02:18:11.389Z,9.70
2018-11-10T02:20:39.634Z,9.70
2018-11-10T02:23:08.076Z,9.60
2018-11-10T02:25:36.372Z,9.60
2018-11-10T02:28:04.695Z,9.50
2018-11-10T02:30:32.983Z,9.50
2018-11-10T02:33:01.274Z,9.40
2018-11-10T02:35:29.506Z,9.40
2018-11-10T02:37:57.752Z,9.40
2018-11-10T02:40:26.147Z,9.30
2018-11-10T02:42:54.442Z,9.30
2018-11-10T02:45:22.695Z,9.20
2018-11-10T02:47:50.956Z,9.20
2018-11-10T02:50:19.260Z,9.20
2018-11-10T02:52:47.593Z,9.20
2018-11-10T02:55:15.875Z,9.20
2018-11-10T02:57:44.134Z,9.20
2018-11-10T03:00:13.636Z,9.30
2018-11-10T03:02:41.901Z,9.40
2018-11-10T03:07:47.817Z,9.40
2018-11-10T03:10:17.131Z,9.40
2018-11-10T03:12:47.144Z,9.40
2018-11-10T03:15:17.013Z,9.40
2018-11-10T03:17:46.365Z,9.40
2018-11-10T03:20:18.926Z,9.40
2018-11-10T03:22:47.225Z,9.30
2018-11-10T03:25:15.708Z,9.20
2018-11-10T03:27:47.371Z,9.20
2018-11-10T03:30:17.980Z,9.20
2018-11-10T03:32:47.097Z,9.10
2018-11-10T03:35:17.043Z,9.20
2018-11-10T03:37:45.641Z,9.20
2018-11-10T03:40:16.006Z,9.30
2018-11-10T03:42:44.954Z,9.30
2018-11-10T03:45:17.707Z,9.40
2018-11-10T03:47:47.254Z,9.40
2018-11-10T03:50:17.205Z,9.40
2018-11-10T03:52:47.209Z,9.40
2018-11-10T03:55:17.042Z,9.40
2018-11-10T03:57:46.253Z,9.30
2018-11-10T04:00:15.628Z,9.30
2018-11-10T04:02:45.480Z,9.30
2018-11-10T04:05:15.664Z,9.30
2018-11-10T04:07:46.813Z,9.30
2018-11-10T04:10:18.480Z,9.30
2018-11-10T04:12:47.807Z,9.40
2018-11-10T04:15:16.903Z,9.40
2018-11-10T04:17:45.181Z,9.40
2018-11-10T04:20:16.827Z,9.50
2018-11-10T04:22:46.877Z,9.60
2018-11-10T04:25:17.068Z,9.70
2018-11-10T04:27:46.489Z,9.70
2018-11-10T04:30:16.308Z,9.80
2018-11-10T04:32:46.412Z,9.90
2018-11-10T04:35:14.708Z,9.90
2018-11-10T04:37:45.433Z,10.00
2018-11-10T04:40:17.179Z,10.00
2018-11-10T04:42:45.846Z,10.00
2018-11-10T04:45:16.632Z,10.00
2018-11-10T04:47:48.301Z,10.00
2018-11-10T04:50:17.276Z,10.00
2018-11-10T04:52:46.728Z,10.10
2018-11-10T04:55:18.616Z,10.10
2018-11-10T04:57:46.874Z,10.10
2018-11-10T05:00:17.087Z,10.20
2018-11-10T05:02:46.260Z,10.10
2018-11-10T05:05:16.048Z,10.10
2018-11-10T05:07:44.737Z,10.20
2018-11-10T05:10:17.595Z,10.10
2018-11-10T05:12:47.607Z,10.20
2018-11-10T05:15:16.248Z,10.10
2018-11-10T05:17:46.424Z,10.20
2018-11-10T05:20:15.202Z,10.10
2018-11-10T05:22:43.480Z,10.20
2018-11-10T05:25:16.288Z,10.10
2018-11-10T05:27:46.605Z,10.20
2018-11-10T05:30:16.803Z,10.20
2018-11-10T05:32:46.046Z,10.30
2018-11-10T05:35:19.273Z,10.30
2018-11-10T05:37:47.525Z,10.30
2018-11-10T05:40:16.694Z,10.30
2018-11-10T05:42:45.175Z,10.30
2018-11-10T05:45:16.848Z,10.30
2018-11-10T05:47:48.704Z,10.30
2018-11-10T05:50:17.240Z,10.30
2018-11-10T05:52:49.016Z,10.20
2018-11-10T05:55:17.404Z,10.20
2018-11-10T05:57:47.385Z,10.20
2018-11-10T06:00:16.680Z,10.10
2018-11-10T06:02:48.401Z,10.20
2018-11-10T06:05:17.538Z,10.10
2018-11-10T06:07:47.759Z,10.20
2018-11-10T06:10:16.474Z,10.20
2018-11-10T06:12:46.804Z,10.20
2018-11-10T06:15:18.481Z,10.30
2018-11-10T06:17:47.754Z,10.20
2018-11-10T06:20:17.851Z,10.20
2018-11-10T06:22:48.111Z,10.20
2018-11-10T06:25:27.304Z,10.20
2018-11-10T06:27:57.489Z,10.20
2018-11-10T06:30:27.609Z,10.20
2018-11-10T06:32:57.646Z,10.20
2018-11-10T06:35:27.869Z,10.20
2018-11-10T06:37:58.536Z,10.20
2018-11-10T06:40:27.725Z,10.20
2018-11-10T06:42:57.066Z,10.20
2018-11-10T06:45:28.887Z,10.30
2018-11-10T06:47:57.652Z,10.20
2018-11-10T06:50:27.861Z,10.30
2018-11-10T06:52:58.130Z,10.30
2018-11-10T06:55:28.091Z,10.20
2018-11-10T06:57:58.397Z,10.20
2018-11-10T07:00:27.720Z,10.20
2018-11-10T07:02:58.434Z,10.20
2018-11-10T07:05:27.744Z,10.20
2018-11-10T07:07:58.058Z,10.20
2018-11-10T07:10:28.234Z,10.20
2018-11-10T07:12:58.343Z,10.20
2018-11-10T07:15:27.642Z,10.20
2018-11-10T07:17:58.688Z,10.30
2018-11-10T07:20:28.093Z,10.20
2018-11-10T07:22:58.267Z,10.20
2018-11-10T07:25:28.725Z,10.20
2018-11-10T07:27:58.462Z,10.20
2018-11-10T07:30:27.016Z,10.20
2018-11-10T07:32:56.181Z,10.20
2018-11-10T07:35:27.956Z,10.20
2018-11-10T07:37:57.241Z,10.20
2018-11-10T07:40:45.801Z,10.30
2018-11-10T07:43:16.874Z,10.30
2018-11-10T07:45:49.237Z,10.40
2018-11-10T07:48:17.585Z,10.40
2018-11-10T07:50:49.067Z,10.50
2018-11-10T07:53:17.741Z,10.50
2018-11-10T07:55:47.839Z,10.50
2018-11-10T07:58:17.249Z,10.50
2018-11-10T08:00:47.420Z,10.50
2018-11-10T08:03:15.920Z,10.60
2018-11-10T08:05:44.248Z,10.60
2018-11-10T08:08:12.754Z,10.60
2018-11-10T08:10:41.036Z,10.70
2018-11-10T08:13:09.234Z,10.70
2018-11-10T08:15:37.740Z,10.70
2018-11-10T08:18:06.605Z,10.80
2018-11-10T08:20:35.276Z,10.80
2018-11-10T08:23:03.566Z,10.80
2018-11-10T08:25:31.905Z,10.80
2018-11-10T08:28:01.231Z,10.80
2018-11-10T08:30:29.432Z,10.80
2018-11-10T08:32:58.310Z,10.80
2018-11-10T08:35:26.585Z,10.80
2018-11-10T08:37:55.760Z,10.90
2018-11-10T08:40:25.298Z,10.90
2018-11-10T08:42:53.772Z,11.00
2018-11-10T08:45:22.266Z,11.00
2018-11-10T08:50:26.850Z,11.20
2018-11-10T08:52:58.562Z,11.20
2018-11-10T08:55:27.142Z,11.30
2018-11-10T08:58:00.026Z,11.30
2018-11-10T09:00:28.703Z,11.30
2018-11-10T09:02:58.218Z,11.30
2018-11-10T09:05:28.437Z,11.40
2018-11-10T09:07:59.298Z,11.40
2018-11-10T09:10:29.889Z,11.40
2018-11-10T09:12:58.717Z,11.50
2018-11-10T09:15:29.469Z,11.50
2018-11-10T09:17:58.297Z,11.50
2018-11-10T09:20:28.545Z,11.50
2018-11-10T09:22:58.858Z,11.50
2018-11-10T09:25:29.019Z,11.60
2018-11-10T09:27:57.645Z,11.70
2018-11-10T09:30:28.043Z,11.70
2018-11-10T09:32:58.351Z,11.80
2018-11-10T09:35:30.158Z,11.80
2018-11-10T09:37:59.822Z,11.90
2018-11-10T09:40:28.544Z,12.00
2018-11-10T09:42:59.961Z,12.00
2018-11-10T09:45:28.981Z,11.90
2018-11-10T09:47:58.633Z,11.90
2018-11-10T09:50:29.650Z,12.00
2018-11-10T09:52:58.603Z,11.90
2018-11-10T09:55:28.767Z,11.90
2018-11-10T09:57:59.558Z,12.00
2018-11-10T10:00:28.205Z,12.10
2018-11-10T10:02:58.705Z,12.10
2018-11-10T10:05:28.978Z,12.20
2018-11-10T10:07:58.451Z,12.10
2018-11-10T10:10:28.619Z,12.10
2018-11-10T10:12:59.055Z,12.10
2018-11-10T10:15:37.616Z,12.10
2018-11-10T10:18:09.372Z,12.10
2018-11-10T10:20:38.215Z,12.20
2018-11-10T10:23:07.811Z,12.30
2018-11-10T10:25:37.426Z,12.40
2018-11-10T10:28:09.402Z,12.40
2018-11-10T10:30:37.756Z,12.50
2018-11-10T10:33:07.219Z,12.60
2018-11-10T10:35:45.276Z,12.60
2018-11-10T10:38:18.289Z,12.60
2018-11-10T10:40:50.073Z,12.70
2018-11-10T10:43:18.958Z,12.70
2018-11-10T10:45:53.027Z,12.80
2018-11-10T10:48:27.481Z,12.80
2018-11-10T10:51:00.026Z,12.90
2018-11-10T10:53:29.090Z,12.90
2018-11-10T10:56:08.892Z,13.00
2018-11-10T10:58:39.884Z,13.00
2018-11-10T11:01:13.907Z,13.10
2018-11-10T11:03:47.830Z,13.20
2018-11-10T11:06:17.421Z,13.30
2018-11-10T11:08:47.207Z,13.40
2018-11-10T11:11:15.790Z,13.40
2018-11-10T11:13:44.401Z,13.50
2018-11-10T11:16:13.065Z,13.60
2018-11-10T11:18:41.372Z,13.70
2018-11-10T11:21:09.966Z,13.70
2018-11-10T11:23:40.684Z,13.80
2018-11-10T11:26:09.103Z,13.80
2018-11-10T11:28:37.668Z,13.90
2018-11-10T11:31:06.179Z,13.90
2018-11-10T11:33:34.585Z,13.90
2018-11-10T11:36:02.917Z,14.00
2018-11-10T11:38:31.387Z,14.00
2018-11-10T11:41:00.040Z,14.00
2018-11-10T11:43:28.768Z,13.90
2018-11-10T11:45:57.407Z,13.80
2018-11-10T11:48:30.038Z,13.90
2018-11-10T11:50:58.507Z,13.90
2018-11-10T11:53:27.009Z,13.90
2018-11-10T11:55:55.382Z,13.80
2018-11-10T11:58:24.079Z,13.90
2018-11-10T12:00:52.652Z,13.90
2018-11-10T12:03:21.195Z,14.00
2018-11-10T12:05:50.061Z,14.10
2018-11-10T12:08:18.745Z,14.10
2018-11-10T12:10:47.380Z,14.10
2018-11-10T12:13:16.417Z,14.10
2018-11-10T12:15:45.482Z,14.00
2018-11-10T12:18:14.560Z,14.00
2018-11-10T12:20:43.311Z,14.00
2018-11-10T12:23:11.817Z,14.00
2018-11-10T12:25:43.279Z,14.00
2018-11-10T12:28:13.265Z,14.00
2018-11-10T12:30:41.831Z,14.10
2018-11-10T12:33:10.579Z,14.10
2018-11-10T12:35:39.202Z,14.10
2018-11-10T12:38:07.841Z,14.10
2018-11-10T12:40:36.365Z,14.10
2018-11-10T12:43:06.101Z,14.10
2018-11-10T12:45:35.636Z,14.10
2018-11-10T12:48:05.816Z,14.10
2018-11-10T12:50:36.763Z,13.90
2018-11-10T12:53:05.565Z,13.90
2018-11-10T12:55:35.092Z,13.80
2018-11-10T12:58:04.425Z,13.80
2018-11-10T13:00:33.008Z,13.80
2018-11-10T13:03:02.447Z,13.80
2018-11-10T13:05:31.175Z,13.80
2018-11-10T13:07:59.887Z,13.80
2018-11-10T13:10:28.993Z,13.70
2018-11-10T13:12:57.565Z,13.70
2018-11-10T13:15:27.583Z,13.70
2018-11-10T13:17:57.507Z,13.60
2018-11-10T13:20:26.294Z,13.60
2018-11-10T13:22:55.087Z,13.60
2018-11-10T13:25:23.891Z,13.60
2018-11-10T13:27:52.416Z,13.40
2018-11-10T13:30:21.990Z,13.40
2018-11-10T13:32:51.379Z,13.40
2018-11-10T13:35:20.549Z,13.30
2018-11-10T13:37:54.270Z,13.30
2018-11-10T13:40:26.662Z,13.30
2018-11-10T13:42:55.375Z,13.30
2018-11-10T13:45:26.525Z,13.40
2018-11-10T13:47:55.016Z,13.30
2018-11-10T13:50:25.778Z,13.40
2018-11-10T13:52:55.316Z,13.30
2018-11-10T13:55:25.434Z,13.30
2018-11-10T13:57:55.298Z,13.30
2018-11-10T14:03:06.399Z,13.30
2018-11-10T14:05:36.849Z,13.30
2018-11-10T14:08:06.884Z,13.30
2018-11-10T14:10:36.289Z,13.30
2018-11-10T14:13:05.840Z,13.20
2018-11-10T14:15:35.350Z,13.20
2018-11-10T14:18:05.030Z,13.20
2018-11-10T14:20:35.447Z,13.10
2018-11-10T14:23:05.014Z,13.10
2018-11-10T14:25:35.737Z,13.10
2018-11-10T14:28:05.028Z,13.10
2018-11-10T14:35:54.998Z,12.90
2018-11-10T14:38:25.285Z,12.90
2018-11-10T14:40:55.983Z,12.90
2018-11-10T14:43:25.116Z,12.80
2018-11-10T14:45:57.249Z,12.90
2018-11-10T14:48:26.342Z,12.80
2018-11-10T14:50:56.768Z,12.90
2018-11-10T14:53:26.512Z,12.80
2018-11-10T14:55:55.733Z,12.90
2018-11-10T14:58:26.810Z,12.90
2018-11-10T15:00:57.379Z,12.90
2018-11-10T15:03:32.535Z,12.80
2018-11-10T15:06:06.136Z,12.80
2018-11-10T15:08:34.942Z,12.80
2018-11-10T15:11:16.079Z,12.90
2018-11-10T15:13:45.418Z,12.80
2018-11-10T15:16:14.970Z,12.80
2018-11-10T15:18:47.014Z,12.80
2018-11-10T15:21:21.727Z,12.80
2018-11-10T15:23:55.475Z,12.70
2018-11-10T15:26:24.844Z,12.70
2018-11-10T15:28:55.220Z,12.70
2018-11-10T15:31:25.353Z,12.70
2018-11-10T15:33:55.084Z,12.60
2018-11-10T15:36:25.739Z,12.60
2018-11-10T15:38:55.676Z,12.60
2018-11-10T15:41:27.191Z,12.50
2018-11-10T15:43:55.892Z,12.50
2018-11-10T15:49:06.276Z,12.50
2018-11-10T15:51:35.089Z,12.50
2018-11-10T15:54:05.369Z,12.40
2018-11-10T15:56:35.003Z,12.50
2018-11-10T15:59:05.272Z,12.50
2018-11-10T16:01:35.717Z,12.50
2018-11-10T16:04:04.801Z,12.40
2018-11-10T16:06:34.366Z,12.50
2018-11-10T16:09:03.813Z,12.30
2018-11-10T16:11:34.805Z,12.30
2018-11-10T16:14:04.876Z,12.20
2018-11-10T16:16:34.872Z,12.20
2018-11-10T16:19:04.352Z,12.10
2018-11-10T16:21:34.463Z,12.10
2018-11-10T16:24:04.901Z,12.10
2018-11-10T16:26:35.020Z,12.10
2018-11-10T16:29:05.403Z,12.10
2018-11-10T16:31:35.309Z,12.10
2018-11-10T16:34:05.376Z,12.00
2018-11-10T16:36:34.174Z,12.00
2018-11-10T16:39:14.685Z,12.00
2018-11-10T16:41:44.315Z,12.00
2018-11-10T16:46:55.383Z,12.00
2018-11-10T16:49:25.851Z,12.00
2018-11-10T16:51:54.656Z,11.90
2018-11-10T16:54:25.302Z,11.90
2018-11-10T16:56:53.958Z,11.90
2018-11-10T16:59:22.882Z,12.00
2018-11-10T17:01:51.398Z,12.00
2018-11-10T17:04:19.914Z,12.00
2018-11-10T17:06:49.480Z,12.00
2018-11-10T17:09:18.017Z,12.00
2018-11-10T17:11:46.591Z,12.00
2018-11-10T17:14:15.115Z,12.00
2018-11-10T17:16:44.229Z,12.10
2018-11-10T17:19:12.641Z,12.10
2018-11-10T17:21:40.988Z,12.10
2018-11-10T17:24:09.385Z,12.10
2018-11-10T17:26:37.763Z,12.20
2018-11-10T17:29:06.300Z,12.20
2018-11-10T17:34:20.242Z,12.20
2018-11-10T17:36:48.625Z,12.20
2018-11-10T17:39:17.466Z,12.20
2018-11-10T17:41:45.805Z,12.10
2018-11-10T17:44:14.262Z,12.10
2018-11-10T17:46:42.774Z,12.10
2018-11-10T17:49:11.634Z,12.10
2018-11-10T17:51:40.761Z,12.10
2018-11-10T17:54:09.419Z,12.10
2018-11-10T17:56:37.938Z,12.10
2018-11-10T17:59:07.345Z,12.10
2018-11-10T18:01:35.976Z,12.10
2018-11-10T18:04:05.017Z,12.10
2018-11-10T18:06:33.549Z,12.10
2018-11-10T18:09:02.158Z,12.10
2018-11-10T18:11:32.426Z,12.10
2018-11-10T18:14:01.063Z,12.10
2018-11-10T18:16:29.932Z,12.00
2018-11-10T18:18:58.801Z,12.00
2018-11-10T18:21:27.961Z,12.10
2018-11-10T18:23:56.676Z,12.10
2018-11-10T18:26:25.887Z,12.10
2018-11-10T18:28:54.337Z,12.00
2018-11-10T18:31:22.906Z,12.10
2018-11-10T18:33:51.529Z,12.00
2018-11-10T18:36:20.322Z,12.00
2018-11-10T18:38:48.731Z,12.00
2018-11-10T18:41:17.384Z,12.00
2018-11-10T18:43:46.174Z,12.00
2018-11-10T18:46:20.324Z,12.00
2018-11-10T18:48:49.166Z,12.00
2018-11-10T18:51:18.426Z,12.00
2018-11-10T18:53:47.175Z,12.00
2018-11-10T18:56:18.806Z,12.00
2018-11-10T18:58:48.210Z,11.90
2018-11-10T19:01:17.130Z,11.90
2018-11-10T19:03:46.336Z,12.00
2018-11-10T19:06:16.202Z,11.90
2018-11-10T19:08:45.002Z,11.90
2018-11-10T19:11:14.351Z,11.90
2018-11-10T19:13:44.096Z,11.90
2018-11-10T19:16:15.437Z,11.90
2018-11-10T19:18:44.244Z,11.90
2018-11-10T19:21:14.130Z,11.90
2018-11-10T19:23:44.268Z,11.90
2018-11-10T19:26:13.156Z,11.90
2018-11-10T19:28:41.931Z,11.80
2018-11-10T19:31:12.094Z,11.80
2018-11-10T19:33:40.737Z,11.80
2018-11-10T19:36:13.978Z,11.90
2018-11-10T19:38:49.550Z,11.90
2018-11-10T19:41:28.268Z,12.00
2018-11-10T19:44:16.609Z,12.00
2018-11-10T19:54:14.804Z,11.90
2018-11-10T19:56:43.906Z,11.90
2018-11-10T20:02:03.429Z,11.90
2018-11-10T20:04:38.143Z,11.80
2018-11-10T20:07:09.728Z,11.80
2018-11-10T20:09:42.668Z,11.80
2018-11-10T20:12:17.117Z,11.80
2018-11-10T20:14:45.521Z,11.90
2018-11-10T20:23:54.189Z,12.00
2018-11-10T20:26:43.591Z,12.00
2018-11-10T20:29:13.152Z,12.00
2018-11-10T20:31:41.574Z,12.00
2018-11-10T20:34:09.786Z,11.90
2018-11-10T20:36:39.310Z,12.00
2018-11-10T20:39:08.762Z,12.10
2018-11-10T20:41:37.558Z,12.10
2018-11-10T20:44:06.819Z,12.20
2018-11-10T20:46:35.386Z,12.10
2018-11-10T20:49:04.757Z,12.20
2018-11-10T20:51:34.557Z,12.20
2018-11-10T20:54:03.897Z,12.30
2018-11-10T20:56:35.709Z,12.30
2018-11-10T20:59:08.401Z,12.30
2018-11-10T21:01:37.109Z,12.30
2018-11-10T21:04:11.295Z,12.30
2018-11-10T21:06:43.616Z,12.30
2018-11-10T21:09:13.009Z,12.30
2018-11-10T21:11:42.078Z,12.30
2018-11-10T21:14:11.104Z,12.30
2018-11-10T21:16:39.486Z,12.30
2018-11-10T21:19:08.348Z,12.30
2018-11-10T21:21:37.321Z,12.30
2018-11-10T21:24:07.052Z,12.30
2018-11-10T21:26:36.401Z,12.30
2018-11-10T21:29:05.853Z,12.30
2018-11-10T21:31:34.361Z,12.30
2018-11-10T21:34:05.166Z,12.30
2018-11-10T21:36:34.218Z,12.30
2018-11-10T21:39:03.220Z,12.40
2018-11-10T21:41:32.258Z,12.40
2018-11-10T21:44:01.505Z,12.40
2018-11-10T21:46:30.737Z,12.50
2018-11-10T21:48:59.665Z,12.50
2018-11-10T21:51:29.407Z,12.50
2018-11-10T21:53:58.678Z,12.50
2018-11-10T21:56:27.350Z,12.50
2018-11-10T21:58:57.199Z,12.50
2018-11-10T22:01:26.962Z,12.50
2018-11-10T22:03:55.900Z,12.30
2018-11-10T22:06:24.757Z,12.20
2018-11-10T22:08:53.831Z,12.20
2018-11-10T22:11:22.829Z,12.10
2018-11-10T22:13:51.759Z,12.00
2018-11-10T22:16:20.247Z,12.00
2018-11-10T22:18:48.751Z,12.00
2018-11-10T22:21:17.530Z,12.00
2018-11-10T22:23:46.506Z,12.00
2018-11-10T22:26:15.319Z,11.90
2018-11-10T22:28:43.771Z,11.90
2018-11-10T22:31:12.591Z,12.00
2018-11-10T22:33:41.008Z,12.00
2018-11-10T22:36:09.533Z,12.00
2018-11-10T22:38:38.501Z,12.00
2018-11-10T22:41:09.788Z,12.10
2018-11-10T22:43:39.997Z,12.00
2018-11-10T22:46:08.853Z,12.00
2018-11-10T22:48:38.257Z,12.10
2018-11-10T22:51:08.155Z,12.10
2018-11-10T22:53:45.349Z,12.10
2018-11-10T22:56:14.893Z,12.10
2018-11-10T22:58:44.090Z,12.10
2018-11-10T23:01:16.685Z,12.10
2018-11-10T23:03:45.672Z,12.00
2018-11-10T23:06:16.895Z,12.10
2018-11-10T23:08:45.756Z,12.10
2018-11-10T23:11:18.999Z,12.10
2018-11-10T23:13:48.419Z,12.10
2018-11-10T23:16:16.926Z,12.10
2018-11-10T23:18:45.667Z,12.00
2018-11-10T23:21:14.939Z,12.10
2018-11-10T23:23:43.971Z,12.10
2018-11-10T23:26:13.764Z,12.10
2018-11-10T23:28:42.274Z,12.10
2018-11-10T23:31:10.824Z,12.10
2018-11-10T23:33:39.626Z,12.20
2018-11-10T23:36:08.887Z,12.20
2018-11-10T23:38:37.369Z,12.30
2018-11-10T23:41:06.023Z,12.30
2018-11-10T23:43:35.165Z,12.30
2018-11-10T23:46:04.641Z,12.30
2018-11-10T23:48:32.929Z,12.30
2018-11-10T23:51:01.663Z,12.40
2018-11-10T23:56:12.902Z,12.50
2018-11-10T23:58:43.330Z,12.50
